sensor_id;sensor_type;location;lat;lon;timestamp;temperature;humidity
35463;DHT22;21578;47.892;9.970;2023-09-07T00:01:56;16.70;96.60
35463;DHT22;21578;47.892;9.970;2023-09-07T00:06:43;16.60;96.60
35463;DHT22;21578;47.892;9.970;2023-09-07T00:11:30;16.50;96.60
35463;DHT22;21578;47.892;9.970;2023-09-07T00:16:17;16.50;96.60
35463;DHT22;21578;47.892;9.970;2023-09-07T00:21:05;16.40;96.60
35463;DHT22;21578;47.892;9.970;2023-09-07T00:25:52;16.40;96.60
35463;DHT22;21578;47.892;9.970;2023-09-07T00:30:39;16.30;96.60
35463;DHT22;21578;47.892;9.970;2023-09-07T00:35:27;16.30;96.60
35463;DHT22;21578;47.892;9.970;2023-09-07T00:40:15;16.40;96.60
35463;DHT22;21578;47.892;9.970;2023-09-07T00:45:02;16.40;96.60
35463;DHT22;21578;47.892;9.970;2023-09-07T00:49:49;16.30;96.60
35463;DHT22;21578;47.892;9.970;2023-09-07T00:54:36;16.30;96.60
35463;DHT22;21578;47.892;9.970;2023-09-07T00:59:27;16.20;96.60
35463;DHT22;21578;47.892;9.970;2023-09-07T01:04:14;16.20;96.60
35463;DHT22;21578;47.892;9.970;2023-09-07T01:09:06;16.10;96.60
35463;DHT22;21578;47.892;9.970;2023-09-07T01:13:56;16.10;96.60
35463;DHT22;21578;47.892;9.970;2023-09-07T01:18:45;16.00;96.60
35463;DHT22;21578;47.892;9.970;2023-09-07T01:23:35;16.00;96.60
35463;DHT22;21578;47.892;9.970;2023-09-07T01:28:22;16.00;96.60
35463;DHT22;21578;47.892;9.970;2023-09-07T01:33:09;16.00;96.60
35463;DHT22;21578;47.892;9.970;2023-09-07T01:37:56;15.90;96.60
35463;DHT22;21578;47.892;9.970;2023-09-07T01:42:44;16.00;96.60
35463;DHT22;21578;47.892;9.970;2023-09-07T01:47:31;15.90;96.60
35463;DHT22;21578;47.892;9.970;2023-09-07T01:52:18;15.90;96.60
35463;DHT22;21578;47.892;9.970;2023-09-07T01:57:05;15.80;96.60
35463;DHT22;21578;47.892;9.970;2023-09-07T02:01:53;15.80;96.60
35463;DHT22;21578;47.892;9.970;2023-09-07T02:06:40;15.70;96.60
35463;DHT22;21578;47.892;9.970;2023-09-07T02:11:27;15.70;96.60
35463;DHT22;21578;47.892;9.970;2023-09-07T02:16:14;15.60;96.60
35463;DHT22;21578;47.892;9.970;2023-09-07T02:21:03;15.50;96.60
35463;DHT22;21578;47.892;9.970;2023-09-07T02:25:49;15.50;96.60
35463;DHT22;21578;47.892;9.970;2023-09-07T02:30:36;15.50;96.60
35463;DHT22;21578;47.892;9.970;2023-09-07T02:35:23;15.50;96.60
35463;DHT22;21578;47.892;9.970;2023-09-07T02:40:12;15.30;96.60
35463;DHT22;21578;47.892;9.970;2023-09-07T02:45:01;15.20;96.60
35463;DHT22;21578;47.892;9.970;2023-09-07T02:49:48;15.20;96.60
35463;DHT22;21578;47.892;9.970;2023-09-07T02:54:35;15.10;96.60
35463;DHT22;21578;47.892;9.970;2023-09-07T02:59:23;15.00;96.60
35463;DHT22;21578;47.892;9.970;2023-09-07T03:04:10;15.00;96.60
35463;DHT22;21578;47.892;9.970;2023-09-07T03:08:57;15.00;96.60
35463;DHT22;21578;47.892;9.970;2023-09-07T03:13:44;15.00;96.60
35463;DHT22;21578;47.892;9.970;2023-09-07T03:18:32;15.10;96.60
35463;DHT22;21578;47.892;9.970;2023-09-07T03:23:19;15.10;96.60
35463;DHT22;21578;47.892;9.970;2023-09-07T03:28:06;15.10;96.60
35463;DHT22;21578;47.892;9.970;2023-09-07T03:32:53;15.10;96.60
35463;DHT22;21578;47.892;9.970;2023-09-07T03:37:42;15.10;96.60
35463;DHT22;21578;47.892;9.970;2023-09-07T03:42:29;15.10;96.60
35463;DHT22;21578;47.892;9.970;2023-09-07T03:47:17;15.00;96.60
35463;DHT22;21578;47.892;9.970;2023-09-07T03:52:04;14.90;96.60
35463;DHT22;21578;47.892;9.970;2023-09-07T03:56:52;14.90;96.60
35463;DHT22;21578;47.892;9.970;2023-09-07T04:01:39;14.90;96.60
35463;DHT22;21578;47.892;9.970;2023-09-07T04:06:26;15.00;96.60
35463;DHT22;21578;47.892;9.970;2023-09-07T04:11:13;15.00;96.60
35463;DHT22;21578;47.892;9.970;2023-09-07T04:16:01;15.00;96.60
35463;DHT22;21578;47.892;9.970;2023-09-07T04:20:48;14.90;96.60
35463;DHT22;21578;47.892;9.970;2023-09-07T04:25:36;14.80;96.60
35463;DHT22;21578;47.892;9.970;2023-09-07T04:30:24;14.80;96.60
35463;DHT22;21578;47.892;9.970;2023-09-07T04:35:13;14.80;96.60
35463;DHT22;21578;47.892;9.970;2023-09-07T04:39:59;14.70;96.60
35463;DHT22;21578;47.892;9.970;2023-09-07T04:44:47;14.70;96.60
35463;DHT22;21578;47.892;9.970;2023-09-07T04:49:34;14.70;96.60
35463;DHT22;21578;47.892;9.970;2023-09-07T04:54:22;14.60;96.60
35463;DHT22;21578;47.892;9.970;2023-09-07T04:59:09;14.70;96.60
35463;DHT22;21578;47.892;9.970;2023-09-07T05:03:56;14.70;96.60
35463;DHT22;21578;47.892;9.970;2023-09-07T05:08:43;14.70;96.60
35463;DHT22;21578;47.892;9.970;2023-09-07T05:13:32;14.60;96.60
35463;DHT22;21578;47.892;9.970;2023-09-07T05:18:19;14.50;96.60
35463;DHT22;21578;47.892;9.970;2023-09-07T05:23:06;14.50;96.60
35463;DHT22;21578;47.892;9.970;2023-09-07T05:27:52;14.50;96.60
35463;DHT22;21578;47.892;9.970;2023-09-07T05:32:41;14.60;96.60
35463;DHT22;21578;47.892;9.970;2023-09-07T05:37:28;14.60;96.60
35463;DHT22;21578;47.892;9.970;2023-09-07T05:42:15;14.60;96.60
35463;DHT22;21578;47.892;9.970;2023-09-07T05:47:01;14.70;96.60
35463;DHT22;21578;47.892;9.970;2023-09-07T05:51:50;14.70;96.60
35463;DHT22;21578;47.892;9.970;2023-09-07T05:56:37;14.80;96.60
35463;DHT22;21578;47.892;9.970;2023-09-07T06:01:24;14.90;96.60
35463;DHT22;21578;47.892;9.970;2023-09-07T06:06:11;15.00;96.60
35463;DHT22;21578;47.892;9.970;2023-09-07T06:11:00;15.10;96.60
35463;DHT22;21578;47.892;9.970;2023-09-07T06:15:46;15.20;96.60
35463;DHT22;21578;47.892;9.970;2023-09-07T06:20:33;15.30;96.60
35463;DHT22;21578;47.892;9.970;2023-09-07T06:25:21;15.40;96.60
35463;DHT22;21578;47.892;9.970;2023-09-07T06:30:10;15.50;96.60
35463;DHT22;21578;47.892;9.970;2023-09-07T06:34:57;15.60;96.60
35463;DHT22;21578;47.892;9.970;2023-09-07T06:39:44;15.80;96.60
35463;DHT22;21578;47.892;9.970;2023-09-07T06:44:33;15.90;96.60
35463;DHT22;21578;47.892;9.970;2023-09-07T06:49:22;16.40;96.60
35463;DHT22;21578;47.892;9.970;2023-09-07T06:54:09;16.70;96.60
35463;DHT22;21578;47.892;9.970;2023-09-07T06:58:56;16.80;96.60
35463;DHT22;21578;47.892;9.970;2023-09-07T07:03:42;17.00;96.60
35463;DHT22;21578;47.892;9.970;2023-09-07T07:08:31;17.10;96.60
35463;DHT22;21578;47.892;9.970;2023-09-07T07:13:18;17.40;96.60
35463;DHT22;21578;47.892;9.970;2023-09-07T07:18:05;17.50;96.60
35463;DHT22;21578;47.892;9.970;2023-09-07T07:22:54;17.70;96.60
35463;DHT22;21578;47.892;9.970;2023-09-07T07:27:42;17.80;96.60
35463;DHT22;21578;47.892;9.970;2023-09-07T07:32:30;18.10;96.60
35463;DHT22;21578;47.892;9.970;2023-09-07T07:37:17;18.30;96.60
35463;DHT22;21578;47.892;9.970;2023-09-07T07:42:04;18.50;96.60
35463;DHT22;21578;47.892;9.970;2023-09-07T07:46:53;18.70;96.60
35463;DHT22;21578;47.892;9.970;2023-09-07T07:51:39;18.80;96.60
35463;DHT22;21578;47.892;9.970;2023-09-07T07:56:26;19.00;96.60
35463;DHT22;21578;47.892;9.970;2023-09-07T08:01:14;19.00;96.60
35463;DHT22;21578;47.892;9.970;2023-09-07T08:06:03;19.10;96.60
35463;DHT22;21578;47.892;9.970;2023-09-07T08:10:49;19.30;96.60
35463;DHT22;21578;47.892;9.970;2023-09-07T08:15:37;19.40;96.60
35463;DHT22;21578;47.892;9.970;2023-09-07T08:20:24;19.60;96.60
35463;DHT22;21578;47.892;9.970;2023-09-07T08:25:13;19.60;96.60
35463;DHT22;21578;47.892;9.970;2023-09-07T08:30:00;19.80;96.60
35463;DHT22;21578;47.892;9.970;2023-09-07T08:34:51;19.90;96.60
35463;DHT22;21578;47.892;9.970;2023-09-07T08:39:42;20.00;96.60
35463;DHT22;21578;47.892;9.970;2023-09-07T08:44:33;20.20;96.60
35463;DHT22;21578;47.892;9.970;2023-09-07T08:49:21;20.30;96.60
35463;DHT22;21578;47.892;9.970;2023-09-07T08:54:09;20.40;96.60
35463;DHT22;21578;47.892;9.970;2023-09-07T08:58:57;20.50;96.60
35463;DHT22;21578;47.892;9.970;2023-09-07T09:03:45;20.50;96.60
35463;DHT22;21578;47.892;9.970;2023-09-07T09:08:42;20.70;96.60
35463;DHT22;21578;47.892;9.970;2023-09-07T09:13:30;20.80;96.60
35463;DHT22;21578;47.892;9.970;2023-09-07T09:18:17;20.90;96.60
35463;DHT22;21578;47.892;9.970;2023-09-07T09:23:05;21.00;96.60
35463;DHT22;21578;47.892;9.970;2023-09-07T09:27:53;21.10;96.60
35463;DHT22;21578;47.892;9.970;2023-09-07T09:32:39;21.30;96.60
35463;DHT22;21578;47.892;9.970;2023-09-07T09:37:27;21.50;96.60
35463;DHT22;21578;47.892;9.970;2023-09-07T09:42:16;21.70;96.60
35463;DHT22;21578;47.892;9.970;2023-09-07T09:47:03;21.80;96.60
35463;DHT22;21578;47.892;9.970;2023-09-07T09:51:50;21.90;96.60
35463;DHT22;21578;47.892;9.970;2023-09-07T09:56:37;22.10;96.30
35463;DHT22;21578;47.892;9.970;2023-09-07T10:01:25;22.20;95.60
35463;DHT22;21578;47.892;9.970;2023-09-07T10:06:19;22.30;95.60
35463;DHT22;21578;47.892;9.970;2023-09-07T10:11:08;22.50;95.90
35463;DHT22;21578;47.892;9.970;2023-09-07T10:16:00;22.70;95.10
35463;DHT22;21578;47.892;9.970;2023-09-07T10:20:53;22.90;94.90
35463;DHT22;21578;47.892;9.970;2023-09-07T10:25:41;23.20;95.70
35463;DHT22;21578;47.892;9.970;2023-09-07T10:30:28;23.70;93.90
35463;DHT22;21578;47.892;9.970;2023-09-07T10:35:19;23.90;92.60
35463;DHT22;21578;47.892;9.970;2023-09-07T10:40:10;24.00;93.30
35463;DHT22;21578;47.892;9.970;2023-09-07T10:45:08;24.10;92.90
35463;DHT22;21578;47.892;9.970;2023-09-07T10:49:57;24.20;92.20
35463;DHT22;21578;47.892;9.970;2023-09-07T10:54:44;24.20;90.70
35463;DHT22;21578;47.892;9.970;2023-09-07T10:59:33;24.50;90.00
35463;DHT22;21578;47.892;9.970;2023-09-07T11:04:20;24.70;89.40
35463;DHT22;21578;47.892;9.970;2023-09-07T11:09:08;25.00;88.50
35463;DHT22;21578;47.892;9.970;2023-09-07T11:13:57;25.20;90.60
35463;DHT22;21578;47.892;9.970;2023-09-07T11:18:46;25.30;91.20
35463;DHT22;21578;47.892;9.970;2023-09-07T11:23:33;25.20;92.00
35463;DHT22;21578;47.892;9.970;2023-09-07T11:28:23;25.30;92.50
35463;DHT22;21578;47.892;9.970;2023-09-07T11:33:10;25.40;90.40
35463;DHT22;21578;47.892;9.970;2023-09-07T11:37:59;25.20;91.60
35463;DHT22;21578;47.892;9.970;2023-09-07T11:42:46;25.40;90.50
35463;DHT22;21578;47.892;9.970;2023-09-07T11:47:33;25.70;90.30
35463;DHT22;21578;47.892;9.970;2023-09-07T11:52:21;25.80;88.60
35463;DHT22;21578;47.892;9.970;2023-09-07T11:57:09;25.90;88.90
35463;DHT22;21578;47.892;9.970;2023-09-07T12:01:56;26.20;88.70
35463;DHT22;21578;47.892;9.970;2023-09-07T12:06:43;26.20;87.30
35463;DHT22;21578;47.892;9.970;2023-09-07T12:11:30;26.20;87.70
35463;DHT22;21578;47.892;9.970;2023-09-07T12:16:18;26.30;85.80
35463;DHT22;21578;47.892;9.970;2023-09-07T12:21:05;26.30;87.80
35463;DHT22;21578;47.892;9.970;2023-09-07T12:25:53;26.40;87.10
35463;DHT22;21578;47.892;9.970;2023-09-07T12:30:41;26.30;87.80
35463;DHT22;21578;47.892;9.970;2023-09-07T12:35:31;26.40;87.30
35463;DHT22;21578;47.892;9.970;2023-09-07T12:40:18;26.20;86.60
35463;DHT22;21578;47.892;9.970;2023-09-07T12:45:06;26.40;85.80
35463;DHT22;21578;47.892;9.970;2023-09-07T12:49:53;26.50;86.50
35463;DHT22;21578;47.892;9.970;2023-09-07T12:54:42;26.50;85.40
35463;DHT22;21578;47.892;9.970;2023-09-07T12:59:29;26.60;86.70
35463;DHT22;21578;47.892;9.970;2023-09-07T13:04:16;26.90;84.70
35463;DHT22;21578;47.892;9.970;2023-09-07T13:09:03;26.90;84.60
35463;DHT22;21578;47.892;9.970;2023-09-07T13:13:52;27.10;83.90
35463;DHT22;21578;47.892;9.970;2023-09-07T13:18:38;27.00;84.10
35463;DHT22;21578;47.892;9.970;2023-09-07T13:23:25;26.80;84.00
35463;DHT22;21578;47.892;9.970;2023-09-07T13:28:13;26.90;85.30
35463;DHT22;21578;47.892;9.970;2023-09-07T13:33:01;27.10;85.90
35463;DHT22;21578;47.892;9.970;2023-09-07T13:37:48;27.00;85.30
35463;DHT22;21578;47.892;9.970;2023-09-07T13:42:35;26.90;86.20
35463;DHT22;21578;47.892;9.970;2023-09-07T13:47:24;27.00;86.80
35463;DHT22;21578;47.892;9.970;2023-09-07T13:52:12;27.10;85.40
35463;DHT22;21578;47.892;9.970;2023-09-07T13:57:00;27.00;86.20
35463;DHT22;21578;47.892;9.970;2023-09-07T14:01:46;27.10;86.70
35463;DHT22;21578;47.892;9.970;2023-09-07T14:06:34;27.20;84.80
35463;DHT22;21578;47.892;9.970;2023-09-07T14:11:23;27.20;86.00
35463;DHT22;21578;47.892;9.970;2023-09-07T14:16:09;27.00;86.40
35463;DHT22;21578;47.892;9.970;2023-09-07T14:20:57;27.10;86.60
35463;DHT22;21578;47.892;9.970;2023-09-07T14:25:44;26.90;86.80
35463;DHT22;21578;47.892;9.970;2023-09-07T14:30:32;26.80;86.90
35463;DHT22;21578;47.892;9.970;2023-09-07T14:35:19;26.60;86.10
35463;DHT22;21578;47.892;9.970;2023-09-07T14:40:07;26.70;86.50
35463;DHT22;21578;47.892;9.970;2023-09-07T14:44:56;26.90;86.00
35463;DHT22;21578;47.892;9.970;2023-09-07T14:50:01;27.10;85.90
35463;DHT22;21578;47.892;9.970;2023-09-07T14:54:49;27.10;85.20
35463;DHT22;21578;47.892;9.970;2023-09-07T14:59:35;27.00;85.20
35463;DHT22;21578;47.892;9.970;2023-09-07T15:04:25;27.10;85.10
35463;DHT22;21578;47.892;9.970;2023-09-07T15:09:13;27.00;84.60
35463;DHT22;21578;47.892;9.970;2023-09-07T15:14:00;27.10;85.30
35463;DHT22;21578;47.892;9.970;2023-09-07T15:18:49;27.00;85.00
35463;DHT22;21578;47.892;9.970;2023-09-07T15:23:37;26.90;84.60
35463;DHT22;21578;47.892;9.970;2023-09-07T15:28:25;26.80;84.50
35463;DHT22;21578;47.892;9.970;2023-09-07T15:33:13;26.70;84.30
35463;DHT22;21578;47.892;9.970;2023-09-07T15:38:00;26.80;84.30
35463;DHT22;21578;47.892;9.970;2023-09-07T15:42:47;26.80;84.10
35463;DHT22;21578;47.892;9.970;2023-09-07T15:47:36;26.60;83.00
35463;DHT22;21578;47.892;9.970;2023-09-07T15:52:22;26.50;83.20
35463;DHT22;21578;47.892;9.970;2023-09-07T15:57:09;26.40;83.00
35463;DHT22;21578;47.892;9.970;2023-09-07T16:01:56;26.30;83.40
35463;DHT22;21578;47.892;9.970;2023-09-07T16:06:45;26.20;83.00
35463;DHT22;21578;47.892;9.970;2023-09-07T16:11:32;26.00;83.90
35463;DHT22;21578;47.892;9.970;2023-09-07T16:16:19;25.90;84.40
35463;DHT22;21578;47.892;9.970;2023-09-07T16:21:07;25.90;84.90
35463;DHT22;21578;47.892;9.970;2023-09-07T16:26:01;25.70;85.20
35463;DHT22;21578;47.892;9.970;2023-09-07T16:30:50;25.50;85.70
35463;DHT22;21578;47.892;9.970;2023-09-07T16:35:37;25.50;85.80
35463;DHT22;21578;47.892;9.970;2023-09-07T16:40:24;25.50;85.80
35463;DHT22;21578;47.892;9.970;2023-09-07T21:27:03;19.40;96.40
35463;DHT22;21578;47.892;9.970;2023-09-07T21:31:51;19.40;96.60
35463;DHT22;21578;47.892;9.970;2023-09-07T21:36:37;19.30;96.60
35463;DHT22;21578;47.892;9.970;2023-09-07T21:41:24;19.30;96.60
35463;DHT22;21578;47.892;9.970;2023-09-07T21:46:13;19.20;96.60
35463;DHT22;21578;47.892;9.970;2023-09-07T21:51:00;19.20;96.60
35463;DHT22;21578;47.892;9.970;2023-09-07T21:55:47;19.20;96.60
35463;DHT22;21578;47.892;9.970;2023-09-07T22:00:34;19.20;96.60
35463;DHT22;21578;47.892;9.970;2023-09-07T22:05:22;19.20;96.60
35463;DHT22;21578;47.892;9.970;2023-09-07T22:10:09;19.10;96.60
35463;DHT22;21578;47.892;9.970;2023-09-07T22:14:57;19.20;96.60
35463;DHT22;21578;47.892;9.970;2023-09-07T22:19:44;19.10;96.60
35463;DHT22;21578;47.892;9.970;2023-09-07T22:24:34;19.10;96.60
35463;DHT22;21578;47.892;9.970;2023-09-07T22:29:21;19.10;96.60
35463;DHT22;21578;47.892;9.970;2023-09-07T22:34:08;19.00;96.60
35463;DHT22;21578;47.892;9.970;2023-09-07T22:38:55;19.00;96.60
35463;DHT22;21578;47.892;9.970;2023-09-07T22:43:43;19.00;96.60
35463;DHT22;21578;47.892;9.970;2023-09-07T22:48:30;18.90;96.60
35463;DHT22;21578;47.892;9.970;2023-09-07T22:53:17;18.90;96.60
35463;DHT22;21578;47.892;9.970;2023-09-07T22:58:07;18.90;96.60
35463;DHT22;21578;47.892;9.970;2023-09-07T23:02:56;18.90;96.60
35463;DHT22;21578;47.892;9.970;2023-09-07T23:07:42;18.90;96.60
35463;DHT22;21578;47.892;9.970;2023-09-07T23:12:29;18.80;96.60
35463;DHT22;21578;47.892;9.970;2023-09-07T23:17:16;18.70;96.60
35463;DHT22;21578;47.892;9.970;2023-09-07T23:22:05;18.70;96.60
35463;DHT22;21578;47.892;9.970;2023-09-07T23:26:53;18.50;96.60
35463;DHT22;21578;47.892;9.970;2023-09-07T23:31:40;18.30;96.60
35463;DHT22;21578;47.892;9.970;2023-09-07T23:36:27;18.30;96.60
35463;DHT22;21578;47.892;9.970;2023-09-07T23:41:16;18.30;96.60
35463;DHT22;21578;47.892;9.970;2023-09-07T23:46:02;18.30;96.60
35463;DHT22;21578;47.892;9.970;2023-09-07T23:50:49;18.30;96.60
35463;DHT22;21578;47.892;9.970;2023-09-07T23:55:36;18.20;96.60
